Koz'Modem'Jansk, Russia
Current Conditions -  °F | °C
As of 6:30 AM on Saturday 29 Nov 2014 (Local Time) from UWKS Reporting Station
Haze Haze  
Wind Chill: 11°   Ceiling: 400
Heat Index: 19°   Visibility: 2.7mi
Dew Point: 18°   Wind: 7mph
Humidity: 93%   Direction: 230°SW
Pressure: 30.65"   Gusts: NA
Location:  56.33°N, 46.58°E
Report Text: UWKS 290330Z 23003MPS 4400 BR OVC004 M07/M08 Q1038 TEMPO 0500FZFG VV002 RMK QBB120 QFE764 24420058
Loading
Personal Weather Stations






























Interactive Weather Map New forecast layout! Learn more

10-Day Weather Forecast

Advertisements
Track Severe Weather on mobile